• Join FlightAware (Why Join?)
  • Login
  • US Flag 
06:36AM EDT


 

Airport Tracker/Info


-or-


 

Live Flight TrackerFlight Track Log ✈ SKW5500 ✈ 20-Apr-2013 ✈ KASE - KDEN

Flight Track Log - Related Links

Times and Time Zones

All times are in EDT time to prevent confusion due to time zone crossing. See the SKW5500 flight status page for this flight to view local times or setup timezone preferences in your user account.

Time Position Orientation Groundspeed Altitude Reporting Facility
EDT Latitude Longitude Course Direction KTS MPH feet Rate Location/Type
06:15PM 39.2706 -106.9250 301° West 219 252 11,300  Level Denver Center
06:17PM 39.4089 -106.7994 101° East  Level FlightAware Approximate
06:17PM 39.3164 -106.9669 325° Northwest 246 283 14,000  Level Denver Center
06:18PM 39.3902 -106.6777 101° East  Level FlightAware Approximate
06:18PM 39.3414 -106.8800 70° East 285 328 16,500  Level Denver Center
06:19PM 39.3681 -106.5570 104° East  Level FlightAware Approximate
06:19PM 39.3447 -106.7411 88° East 326 375 19,500  Level Denver Center
06:20PM 39.3371 -106.4408 123° Southeast  Level FlightAware Approximate
06:20PM 39.3481 -106.6214 88° East 343 395 22,100  Level Denver Center
06:21PM 39.3392 -106.4736 94° East 369 425 24,800 1,380 Climbing Denver Center
06:22PM 39.3458 -106.3425 86° East 380 437 25,000 60 Climbing Denver Center
06:23PM 39.3544 -106.2156 85° East 373 429 25,000  Level Denver Center
06:24PM 39.3617 -106.0750 86° East 356 410 25,000 -300 Level Denver Center
06:25PM 39.3692 -105.9467 86° East 355 409 24,500 -720 Descending Denver Center
06:26PM 39.3764 -105.8150 86° East 360 414 23,600 -1,080 Descending Denver Center
06:27PM 39.3850 -105.6894 85° East 351 404 22,300 -1,680 Descending Denver Center
06:28PM 39.4436 -105.5783 56° Northeast 341 392 20,200 -1,860 Descending Denver Center
06:29PM 39.4489 -105.4586 87° East 338 389 18,500 -1,740 Descending Denver Center
06:30PM 39.4319 -105.3358 100° East 346 398 16,700 -1,560 Descending Denver Center
06:31PM 39.4200 -105.2081 97° East 336 387 15,400 -1,140 Descending Denver Center
06:32PM 39.4239 -105.0956 87° East 323 372 14,400 -840 Descending Denver Center
06:33PM 39.4361 -104.9936 81° East 289 333 13,800 -600 Descending Denver Center
06:34PM 39.4636 -104.9003 69° East 258 297 13,200 -780 Descending Denver Center
06:35PM 39.4894 -104.8161 68° East 253 291 12,300 -1,080 Descending Denver Center
06:36PM 39.5456 -104.7644 35° Northeast 250 288 11,100 -1,260 Descending Denver Center
06:37PM 39.6097 -104.7206 28° Northeast 244 281 9,800 -1,200 Descending Denver Center
06:38PM 39.6681 -104.6836 26° Northeast 234 269 8,700 -1,140 Descending Denver Center